Aérodrome :
LOGIN :

S'inscrire | Disclaimer

   EN    FR    IT 

 










Légende :    VFR   VFR Marginal   IFR   IFR Intensif   IFR Très Intensif
Visi : 
Plafond : 
>= 8 km
>= 3000ft
5 à 8 km
1000 à 3000 ft
1500m à 5 km
500 à 1000 ft
800 à 1500m
200 à 500 ft
< 800m
< 200 ft
Symboles :   Orages  Brouillard  Fortes neiges  Fortes précipitations  Vent > 20 kt
SIGMETs :   Divers  Orages  Givrage  Turbulence  Onde Orograph.  Cendres Volcan.







- Altitude de l'aérodrome : 791 ft
- Code IATA : KRK


EPKK - Krakow-Balice

DERNIER METAR :
  • 181300Z 22013KT 9999 FEW026 SCT053 09/01 Q1014

METARs EXPIRÉS :
  • 181230Z 22010KT 9999 FEW026 SCT053 08/02 Q1014
  • 181200Z 25007KT 9999 SCT023 SCT040 08/03 Q1014
  • 181130Z 23009KT 200V260 9999 SCT020 SCT040 07/02 Q1014
  • 181100Z 24011KT 9999 SCT020 SCT040 08/03 Q1013
  • 181030Z 23010KT 9999 FEW020 BKN040 07/03 Q1014

TAF TAF EPKK
Valide du 18 à 12h jusqu'au 19 à 12h UTC


181130Z 1812/1912 24010KT 9999 BKN030
TEMPO 1812/1816 -SHRA BKN008 BKN020CB
TEMPO 1908/1912 27015G25KT
Pas de NOTAMs connus pour ce terrain.
1 SIGMET publié pour la FIR Warszawa (EPWW) :
 
Turbulence forte
EPWW SIGMET 1 VALID 181110/181510 EPWA
EPWW WARSAW FIR SEV TURB OBS AT 1055Z SW OF LINE N5120 E01450 - N5050 E01640 - N5020 E01710 FL180/260 MOV ENE NC=



MET'MAP, la Météo Aéronautique d'un coup d'oeil ! - Copyright ORBIFLY Décembre 2007 - Disclaimer

ORBIFLY MET'MAP TEAM :

Programmation & Développement : Alexandra Zaïnal
Conception & Développement : Baudouin d'Aumeries
Co-Programmation & Développement : Marc-Olivier Méhu
Soutien technique & logistique : Manuel Goepfert

Contact : metmap@orbifly.com




SOURCES & CREDITS :

   NOAA